sensor_id;sensor_type;location;lat;lon;timestamp;temperature;humidity
5520;DHT22;2782;52.362;10.012;2024-01-15T00:00:59;19.50;51.20
5520;DHT22;2782;52.362;10.012;2024-01-15T00:02:03;19.50;51.20
5520;DHT22;2782;52.362;10.012;2024-01-15T00:03:04;19.50;51.10
5520;DHT22;2782;52.362;10.012;2024-01-15T00:04:05;19.50;51.10
5520;DHT22;2782;52.362;10.012;2024-01-15T00:05:07;19.50;51.20
5520;DHT22;2782;52.362;10.012;2024-01-15T00:06:08;19.50;51.20
5520;DHT22;2782;52.362;10.012;2024-01-15T00:07:10;19.50;51.20
5520;DHT22;2782;52.362;10.012;2024-01-15T00:08:10;19.50;51.20
5520;DHT22;2782;52.362;10.012;2024-01-15T00:09:12;19.50;51.20
5520;DHT22;2782;52.362;10.012;2024-01-15T00:10:13;19.50;51.20
5520;DHT22;2782;52.362;10.012;2024-01-15T00:11:15;19.40;51.10
5520;DHT22;2782;52.362;10.012;2024-01-15T00:12:15;19.40;51.20
5520;DHT22;2782;52.362;10.012;2024-01-15T00:13:17;19.40;51.20
5520;DHT22;2782;52.362;10.012;2024-01-15T00:14:18;19.40;51.20
5520;DHT22;2782;52.362;10.012;2024-01-15T00:15:22;19.40;51.20
5520;DHT22;2782;52.362;10.012;2024-01-15T00:16:22;19.40;51.20
5520;DHT22;2782;52.362;10.012;2024-01-15T00:17:24;19.40;51.20
5520;DHT22;2782;52.362;10.012;2024-01-15T00:18:25;19.40;51.20
5520;DHT22;2782;52.362;10.012;2024-01-15T00:19:27;19.40;51.20
5520;DHT22;2782;52.362;10.012;2024-01-15T00:20:27;19.40;51.20
5520;DHT22;2782;52.362;10.012;2024-01-15T00:21:29;19.40;51.20
5520;DHT22;2782;52.362;10.012;2024-01-15T00:22:30;19.40;51.20
5520;DHT22;2782;52.362;10.012;2024-01-15T00:23:32;19.30;51.10
5520;DHT22;2782;52.362;10.012;2024-01-15T00:24:33;19.30;51.10
5520;DHT22;2782;52.362;10.012;2024-01-15T00:25:35;19.30;51.10
5520;DHT22;2782;52.362;10.012;2024-01-15T00:26:36;19.30;51.10
5520;DHT22;2782;52.362;10.012;2024-01-15T00:27:39;19.30;51.10
5520;DHT22;2782;52.362;10.012;2024-01-15T00:28:40;19.40;51.20
5520;DHT22;2782;52.362;10.012;2024-01-15T00:29:42;19.30;51.10
5520;DHT22;2782;52.362;10.012;2024-01-15T00:30:44;19.30;51.10
5520;DHT22;2782;52.362;10.012;2024-01-15T00:31:46;19.30;51.10
5520;DHT22;2782;52.362;10.012;2024-01-15T00:32:46;19.30;51.10
5520;DHT22;2782;52.362;10.012;2024-01-15T00:33:49;19.30;51.10
5520;DHT22;2782;52.362;10.012;2024-01-15T00:34:50;19.30;51.10
5520;DHT22;2782;52.362;10.012;2024-01-15T00:35:52;19.30;51.20
5520;DHT22;2782;52.362;10.012;2024-01-15T00:36:53;19.30;51.20
5520;DHT22;2782;52.362;10.012;2024-01-15T00:37:58;19.20;51.10
5520;DHT22;2782;52.362;10.012;2024-01-15T00:38:59;19.20;51.10
5520;DHT22;2782;52.362;10.012;2024-01-15T00:40:00;19.20;51.10
5520;DHT22;2782;52.362;10.012;2024-01-15T00:41:01;19.20;51.10
5520;DHT22;2782;52.362;10.012;2024-01-15T00:42:06;19.20;51.10
5520;DHT22;2782;52.362;10.012;2024-01-15T00:43:06;19.20;51.10
5520;DHT22;2782;52.362;10.012;2024-01-15T00:44:08;19.20;51.10
5520;DHT22;2782;52.362;10.012;2024-01-15T00:45:09;19.20;51.10
5520;DHT22;2782;52.362;10.012;2024-01-15T00:46:13;19.20;51.10
5520;DHT22;2782;52.362;10.012;2024-01-15T00:47:13;19.10;51.00
5520;DHT22;2782;52.362;10.012;2024-01-15T00:48:15;19.20;51.10
5520;DHT22;2782;52.362;10.012;2024-01-15T00:49:16;19.20;51.10
5520;DHT22;2782;52.362;10.012;2024-01-15T00:50:17;19.10;51.00
5520;DHT22;2782;52.362;10.012;2024-01-15T00:51:19;19.10;51.00
5520;DHT22;2782;52.362;10.012;2024-01-15T00:52:21;19.10;51.10
5520;DHT22;2782;52.362;10.012;2024-01-15T00:53:23;19.10;51.00
5520;DHT22;2782;52.362;10.012;2024-01-15T00:54:24;19.10;51.10
5520;DHT22;2782;52.362;10.012;2024-01-15T00:55:25;19.10;51.10
5520;DHT22;2782;52.362;10.012;2024-01-15T00:56:26;19.10;51.00
5520;DHT22;2782;52.362;10.012;2024-01-15T00:57:28;19.10;51.10
5520;DHT22;2782;52.362;10.012;2024-01-15T00:58:29;19.10;51.10
5520;DHT22;2782;52.362;10.012;2024-01-15T00:59:29;19.10;51.10
5520;DHT22;2782;52.362;10.012;2024-01-15T01:00:31;19.10;51.10
5520;DHT22;2782;52.362;10.012;2024-01-15T01:01:41;19.10;51.10
5520;DHT22;2782;52.362;10.012;2024-01-15T01:02:43;19.10;51.10
5520;DHT22;2782;52.362;10.012;2024-01-15T01:03:44;19.10;51.20
5520;DHT22;2782;52.362;10.012;2024-01-15T01:04:46;19.00;51.10
5520;DHT22;2782;52.362;10.012;2024-01-15T01:05:48;19.10;51.20
5520;DHT22;2782;52.362;10.012;2024-01-15T01:06:50;19.10;51.20
5520;DHT22;2782;52.362;10.012;2024-01-15T01:07:51;19.00;51.10
5520;DHT22;2782;52.362;10.012;2024-01-15T01:08:53;19.00;51.10
5520;DHT22;2782;52.362;10.012;2024-01-15T01:09:54;19.00;51.10
5520;DHT22;2782;52.362;10.012;2024-01-15T01:10:56;19.00;51.10
5520;DHT22;2782;52.362;10.012;2024-01-15T01:11:57;19.00;51.10
5520;DHT22;2782;52.362;10.012;2024-01-15T01:12:59;19.00;51.10
5520;DHT22;2782;52.362;10.012;2024-01-15T01:13:59;19.00;51.10
5520;DHT22;2782;52.362;10.012;2024-01-15T01:15:05;18.90;51.00
5520;DHT22;2782;52.362;10.012;2024-01-15T01:16:05;19.00;51.20
5520;DHT22;2782;52.362;10.012;2024-01-15T01:17:09;19.00;51.20
5520;DHT22;2782;52.362;10.012;2024-01-15T01:18:10;19.00;51.20
5520;DHT22;2782;52.362;10.012;2024-01-15T01:19:11;18.90;51.10
5520;DHT22;2782;52.362;10.012;2024-01-15T01:20:12;18.90;51.10
5520;DHT22;2782;52.362;10.012;2024-01-15T01:21:17;18.90;51.10
5520;DHT22;2782;52.362;10.012;2024-01-15T01:22:18;18.90;51.10
5520;DHT22;2782;52.362;10.012;2024-01-15T01:23:21;18.90;51.10
5520;DHT22;2782;52.362;10.012;2024-01-15T01:24:21;18.90;51.10
5520;DHT22;2782;52.362;10.012;2024-01-15T01:25:23;18.90;51.10
5520;DHT22;2782;52.362;10.012;2024-01-15T01:26:24;18.90;51.10
5520;DHT22;2782;52.362;10.012;2024-01-15T01:27:25;18.90;51.10
5520;DHT22;2782;52.362;10.012;2024-01-15T01:28:27;18.90;51.10
5520;DHT22;2782;52.362;10.012;2024-01-15T01:29:28;18.90;51.10
5520;DHT22;2782;52.362;10.012;2024-01-15T01:30:28;18.90;51.20
5520;DHT22;2782;52.362;10.012;2024-01-15T01:31:30;18.80;51.10
5520;DHT22;2782;52.362;10.012;2024-01-15T01:32:32;18.80;51.00
5520;DHT22;2782;52.362;10.012;2024-01-15T01:33:38;18.90;51.10
5520;DHT22;2782;52.362;10.012;2024-01-15T01:34:40;18.80;51.00
5520;DHT22;2782;52.362;10.012;2024-01-15T01:35:42;18.80;51.00
5520;DHT22;2782;52.362;10.012;2024-01-15T01:36:44;18.80;51.00
5520;DHT22;2782;52.362;10.012;2024-01-15T01:37:45;18.80;51.00
5520;DHT22;2782;52.362;10.012;2024-01-15T01:38:46;18.70;50.90
5520;DHT22;2782;52.362;10.012;2024-01-15T01:39:48;18.80;51.00
5520;DHT22;2782;52.362;10.012;2024-01-15T01:40:48;18.80;51.10
5520;DHT22;2782;52.362;10.012;2024-01-15T01:41:50;18.80;51.10
5520;DHT22;2782;52.362;10.012;2024-01-15T01:42:51;18.80;51.10
5520;DHT22;2782;52.362;10.012;2024-01-15T01:43:54;18.70;51.00
5520;DHT22;2782;52.362;10.012;2024-01-15T01:44:58;18.70;51.00
5520;DHT22;2782;52.362;10.012;2024-01-15T01:46:00;18.70;51.00
5520;DHT22;2782;52.362;10.012;2024-01-15T01:47:04;18.70;51.10
5520;DHT22;2782;52.362;10.012;2024-01-15T01:48:07;18.70;51.00
5520;DHT22;2782;52.362;10.012;2024-01-15T01:49:09;18.70;51.10
5520;DHT22;2782;52.362;10.012;2024-01-15T01:50:11;18.70;51.00
5520;DHT22;2782;52.362;10.012;2024-01-15T01:51:14;18.70;51.10
5520;DHT22;2782;52.362;10.012;2024-01-15T01:52:15;18.70;51.10
5520;DHT22;2782;52.362;10.012;2024-01-15T01:53:17;18.70;51.10
5520;DHT22;2782;52.362;10.012;2024-01-15T01:54:18;18.70;51.10
5520;DHT22;2782;52.362;10.012;2024-01-15T01:55:21;18.70;51.10
5520;DHT22;2782;52.362;10.012;2024-01-15T01:56:25;18.70;51.10
5520;DHT22;2782;52.362;10.012;2024-01-15T01:57:26;18.70;51.10
5520;DHT22;2782;52.362;10.012;2024-01-15T01:58:27;18.70;51.10
5520;DHT22;2782;52.362;10.012;2024-01-15T01:59:30;18.60;51.10
5520;DHT22;2782;52.362;10.012;2024-01-15T02:00:33;18.60;51.00
5520;DHT22;2782;52.362;10.012;2024-01-15T02:01:36;18.60;51.00
5520;DHT22;2782;52.362;10.012;2024-01-15T02:02:37;18.60;51.00
5520;DHT22;2782;52.362;10.012;2024-01-15T02:03:40;18.60;51.00
5520;DHT22;2782;52.362;10.012;2024-01-15T02:04:42;18.60;51.00
5520;DHT22;2782;52.362;10.012;2024-01-15T02:05:43;18.60;51.00
5520;DHT22;2782;52.362;10.012;2024-01-15T02:06:45;18.60;51.00
5520;DHT22;2782;52.362;10.012;2024-01-15T02:07:47;18.60;51.00
5520;DHT22;2782;52.362;10.012;2024-01-15T02:08:48;18.60;51.00
5520;DHT22;2782;52.362;10.012;2024-01-15T02:09:50;18.60;51.00
5520;DHT22;2782;52.362;10.012;2024-01-15T02:10:51;18.60;51.10
5520;DHT22;2782;52.362;10.012;2024-01-15T02:11:52;18.60;51.10
5520;DHT22;2782;52.362;10.012;2024-01-15T02:12:53;18.60;51.00
5520;DHT22;2782;52.362;10.012;2024-01-15T02:13:55;18.50;51.00
5520;DHT22;2782;52.362;10.012;2024-01-15T02:14:56;18.50;51.00
5520;DHT22;2782;52.362;10.012;2024-01-15T02:15:58;18.50;51.00
5520;DHT22;2782;52.362;10.012;2024-01-15T02:16:59;18.50;51.00
5520;DHT22;2782;52.362;10.012;2024-01-15T02:18:02;18.50;51.00
5520;DHT22;2782;52.362;10.012;2024-01-15T02:19:04;18.50;51.00
5520;DHT22;2782;52.362;10.012;2024-01-15T02:20:07;18.50;51.00
5520;DHT22;2782;52.362;10.012;2024-01-15T02:21:08;18.50;51.00
5520;DHT22;2782;52.362;10.012;2024-01-15T02:22:10;18.50;51.00
5520;DHT22;2782;52.362;10.012;2024-01-15T02:23:13;18.50;51.00
5520;DHT22;2782;52.362;10.012;2024-01-15T02:24:15;18.50;51.00
5520;DHT22;2782;52.362;10.012;2024-01-15T02:25:15;18.50;51.10
5520;DHT22;2782;52.362;10.012;2024-01-15T02:26:17;18.50;51.10
5520;DHT22;2782;52.362;10.012;2024-01-15T02:27:19;18.50;51.10
5520;DHT22;2782;52.362;10.012;2024-01-15T02:28:21;18.40;51.00
5520;DHT22;2782;52.362;10.012;2024-01-15T02:29:21;18.40;51.00
5520;DHT22;2782;52.362;10.012;2024-01-15T02:30:24;18.50;51.10
5520;DHT22;2782;52.362;10.012;2024-01-15T02:31:25;18.40;51.00
5520;DHT22;2782;52.362;10.012;2024-01-15T02:32:27;18.40;51.00
5520;DHT22;2782;52.362;10.012;2024-01-15T02:33:28;18.40;51.00
5520;DHT22;2782;52.362;10.012;2024-01-15T02:34:31;18.40;51.00
5520;DHT22;2782;52.362;10.012;2024-01-15T02:35:32;18.40;51.00
5520;DHT22;2782;52.362;10.012;2024-01-15T02:36:34;18.40;51.00
5520;DHT22;2782;52.362;10.012;2024-01-15T02:37:36;18.40;51.00
5520;DHT22;2782;52.362;10.012;2024-01-15T02:38:39;18.40;51.00
5520;DHT22;2782;52.362;10.012;2024-01-15T02:39:39;18.40;51.00
5520;DHT22;2782;52.362;10.012;2024-01-15T02:40:41;18.40;51.00
5520;DHT22;2782;52.362;10.012;2024-01-15T02:41:42;18.40;51.00
5520;DHT22;2782;52.362;10.012;2024-01-15T02:42:44;18.40;51.00
5520;DHT22;2782;52.362;10.012;2024-01-15T02:43:44;18.40;51.00
5520;DHT22;2782;52.362;10.012;2024-01-15T02:44:46;18.40;51.00
5520;DHT22;2782;52.362;10.012;2024-01-15T02:45:50;18.40;51.00
5520;DHT22;2782;52.362;10.012;2024-01-15T02:46:52;18.40;51.00
5520;DHT22;2782;52.362;10.012;2024-01-15T02:47:52;18.30;51.00
5520;DHT22;2782;52.362;10.012;2024-01-15T02:48:54;18.30;51.00
5520;DHT22;2782;52.362;10.012;2024-01-15T02:49:57;18.40;51.00
5520;DHT22;2782;52.362;10.012;2024-01-15T02:50:59;18.30;51.00
5520;DHT22;2782;52.362;10.012;2024-01-15T02:51:59;18.30;51.00
5520;DHT22;2782;52.362;10.012;2024-01-15T02:53:01;18.30;51.00
5520;DHT22;2782;52.362;10.012;2024-01-15T02:54:03;18.30;51.00
5520;DHT22;2782;52.362;10.012;2024-01-15T02:55:06;18.30;51.00
5520;DHT22;2782;52.362;10.012;2024-01-15T02:56:07;18.30;51.00
5520;DHT22;2782;52.362;10.012;2024-01-15T02:57:08;18.30;51.00
5520;DHT22;2782;52.362;10.012;2024-01-15T02:58:10;18.30;51.00
5520;DHT22;2782;52.362;10.012;2024-01-15T02:59:11;18.30;51.00
5520;DHT22;2782;52.362;10.012;2024-01-15T03:00:12;18.30;51.10
5520;DHT22;2782;52.362;10.012;2024-01-15T03:01:18;18.30;51.10
5520;DHT22;2782;52.362;10.012;2024-01-15T03:04:35;18.20;50.90
5520;DHT22;2782;52.362;10.012;2024-01-15T03:05:36;18.20;50.90
5520;DHT22;2782;52.362;10.012;2024-01-15T03:06:37;18.20;51.00
5520;DHT22;2782;52.362;10.012;2024-01-15T03:07:38;18.20;51.00
5520;DHT22;2782;52.362;10.012;2024-01-15T03:08:39;18.20;51.10
5520;DHT22;2782;52.362;10.012;2024-01-15T03:09:42;18.20;51.10
5520;DHT22;2782;52.362;10.012;2024-01-15T03:10:43;18.20;51.00
5520;DHT22;2782;52.362;10.012;2024-01-15T03:11:43;18.20;51.60
5520;DHT22;2782;52.362;10.012;2024-01-15T03:12:45;18.10;51.00
5520;DHT22;2782;52.362;10.012;2024-01-15T03:13:45;18.20;51.00
5520;DHT22;2782;52.362;10.012;2024-01-15T03:14:47;18.10;50.90
5520;DHT22;2782;52.362;10.012;2024-01-15T03:15:48;18.10;50.90
5520;DHT22;2782;52.362;10.012;2024-01-15T03:16:49;18.10;51.00
5520;DHT22;2782;52.362;10.012;2024-01-15T03:17:50;18.10;51.00
5520;DHT22;2782;52.362;10.012;2024-01-15T03:18:51;18.10;51.00
5520;DHT22;2782;52.362;10.012;2024-01-15T03:19:53;18.10;51.50
5520;DHT22;2782;52.362;10.012;2024-01-15T03:20:53;18.10;50.90
5520;DHT22;2782;52.362;10.012;2024-01-15T03:21:55;18.10;50.90
5520;DHT22;2782;52.362;10.012;2024-01-15T03:22:55;18.10;51.00
5520;DHT22;2782;52.362;10.012;2024-01-15T03:23:57;18.20;51.00
5520;DHT22;2782;52.362;10.012;2024-01-15T03:24:59;18.10;51.00
5520;DHT22;2782;52.362;10.012;2024-01-15T03:26:01;18.10;51.00
5520;DHT22;2782;52.362;10.012;2024-01-15T03:27:02;18.10;51.00
5520;DHT22;2782;52.362;10.012;2024-01-15T03:28:04;18.10;51.00
5520;DHT22;2782;52.362;10.012;2024-01-15T03:29:05;18.10;51.00
5520;DHT22;2782;52.362;10.012;2024-01-15T03:30:08;18.10;51.00
5520;DHT22;2782;52.362;10.012;2024-01-15T03:31:09;18.10;51.00
5520;DHT22;2782;52.362;10.012;2024-01-15T03:32:10;18.10;51.00
5520;DHT22;2782;52.362;10.012;2024-01-15T03:33:11;18.10;51.10
5520;DHT22;2782;52.362;10.012;2024-01-15T03:34:12;18.10;51.10
5520;DHT22;2782;52.362;10.012;2024-01-15T03:35:13;18.10;51.00
5520;DHT22;2782;52.362;10.012;2024-01-15T03:36:14;18.10;51.00
5520;DHT22;2782;52.362;10.012;2024-01-15T03:37:15;18.10;51.00
5520;DHT22;2782;52.362;10.012;2024-01-15T03:38:16;18.10;51.00
5520;DHT22;2782;52.362;10.012;2024-01-15T03:39:17;18.10;51.00
5520;DHT22;2782;52.362;10.012;2024-01-15T03:40:22;18.10;51.00
5520;DHT22;2782;52.362;10.012;2024-01-15T03:41:23;18.00;50.90
5520;DHT22;2782;52.362;10.012;2024-01-15T03:42:24;18.00;50.90
5520;DHT22;2782;52.362;10.012;2024-01-15T03:43:27;18.00;50.90
5520;DHT22;2782;52.362;10.012;2024-01-15T03:44:28;18.00;50.90
5520;DHT22;2782;52.362;10.012;2024-01-15T03:45:29;18.00;50.90
5520;DHT22;2782;52.362;10.012;2024-01-15T03:46:30;18.00;51.00
5520;DHT22;2782;52.362;10.012;2024-01-15T03:47:31;18.00;51.00
5520;DHT22;2782;52.362;10.012;2024-01-15T03:48:32;18.00;51.00
5520;DHT22;2782;52.362;10.012;2024-01-15T03:49:33;18.00;51.00
5520;DHT22;2782;52.362;10.012;2024-01-15T03:50:35;18.00;51.10
5520;DHT22;2782;52.362;10.012;2024-01-15T03:51:36;18.00;51.00
5520;DHT22;2782;52.362;10.012;2024-01-15T03:52:38;18.00;51.00
5520;DHT22;2782;52.362;10.012;2024-01-15T03:53:38;18.00;51.00
5520;DHT22;2782;52.362;10.012;2024-01-15T03:54:40;18.00;51.00
5520;DHT22;2782;52.362;10.012;2024-01-15T03:55:42;18.00;51.00
5520;DHT22;2782;52.362;10.012;2024-01-15T03:56:44;18.00;50.90
5520;DHT22;2782;52.362;10.012;2024-01-15T03:57:44;18.00;50.90
5520;DHT22;2782;52.362;10.012;2024-01-15T03:58:45;18.00;50.90
5520;DHT22;2782;52.362;10.012;2024-01-15T03:59:46;18.00;50.90
5520;DHT22;2782;52.362;10.012;2024-01-15T04:00:47;18.00;50.90
5520;DHT22;2782;52.362;10.012;2024-01-15T04:01:49;18.00;50.90
5520;DHT22;2782;52.362;10.012;2024-01-15T04:02:50;18.00;50.90
5520;DHT22;2782;52.362;10.012;2024-01-15T04:03:52;18.00;50.90
5520;DHT22;2782;52.362;10.012;2024-01-15T04:04:54;18.00;50.90
5520;DHT22;2782;52.362;10.012;2024-01-15T04:05:57;18.00;50.90
5520;DHT22;2782;52.362;10.012;2024-01-15T04:06:58;18.00;50.90
5520;DHT22;2782;52.362;10.012;2024-01-15T04:07:59;18.00;50.80
5520;DHT22;2782;52.362;10.012;2024-01-15T04:09:00;18.00;50.80
5520;DHT22;2782;52.362;10.012;2024-01-15T04:10:02;18.00;50.80
5520;DHT22;2782;52.362;10.012;2024-01-15T04:11:04;18.00;50.80
5520;DHT22;2782;52.362;10.012;2024-01-15T04:12:07;18.00;50.80
5520;DHT22;2782;52.362;10.012;2024-01-15T04:13:07;18.00;50.80
5520;DHT22;2782;52.362;10.012;2024-01-15T04:14:09;18.00;50.80
5520;DHT22;2782;52.362;10.012;2024-01-15T04:15:09;18.00;50.80
5520;DHT22;2782;52.362;10.012;2024-01-15T04:16:11;18.00;50.80
5520;DHT22;2782;52.362;10.012;2024-01-15T04:17:12;18.00;50.80
5520;DHT22;2782;52.362;10.012;2024-01-15T04:18:13;18.00;50.80
5520;DHT22;2782;52.362;10.012;2024-01-15T04:19:14;18.00;50.80
5520;DHT22;2782;52.362;10.012;2024-01-15T04:20:15;18.00;50.80
5520;DHT22;2782;52.362;10.012;2024-01-15T04:21:17;18.00;50.80
5520;DHT22;2782;52.362;10.012;2024-01-15T04:22:18;18.00;50.80
5520;DHT22;2782;52.362;10.012;2024-01-15T04:23:19;18.00;50.80
5520;DHT22;2782;52.362;10.012;2024-01-15T04:24:20;18.00;50.80
5520;DHT22;2782;52.362;10.012;2024-01-15T04:25:21;18.00;50.80
5520;DHT22;2782;52.362;10.012;2024-01-15T04:26:23;18.00;50.80
5520;DHT22;2782;52.362;10.012;2024-01-15T04:27:24;18.00;50.80
5520;DHT22;2782;52.362;10.012;2024-01-15T04:28:25;18.00;50.80
5520;DHT22;2782;52.362;10.012;2024-01-15T04:29:27;17.90;50.80
5520;DHT22;2782;52.362;10.012;2024-01-15T04:30:27;17.90;50.80
5520;DHT22;2782;52.362;10.012;2024-01-15T04:31:28;18.00;50.80
5520;DHT22;2782;52.362;10.012;2024-01-15T04:32:30;17.90;50.70
5520;DHT22;2782;52.362;10.012;2024-01-15T04:33:30;18.00;50.80
5520;DHT22;2782;52.362;10.012;2024-01-15T04:34:32;17.90;50.70
5520;DHT22;2782;52.362;10.012;2024-01-15T04:35:33;18.00;50.80
5520;DHT22;2782;52.362;10.012;2024-01-15T04:36:38;17.90;50.70
5520;DHT22;2782;52.362;10.012;2024-01-15T04:37:40;17.90;50.70
5520;DHT22;2782;52.362;10.012;2024-01-15T04:38:41;18.00;50.80
5520;DHT22;2782;52.362;10.012;2024-01-15T04:39:42;17.90;50.70
5520;DHT22;2782;52.362;10.012;2024-01-15T04:40:43;18.00;50.80
5520;DHT22;2782;52.362;10.012;2024-01-15T04:41:46;17.90;50.70
5520;DHT22;2782;52.362;10.012;2024-01-15T04:42:46;17.90;50.70
5520;DHT22;2782;52.362;10.012;2024-01-15T04:43:48;17.90;50.70
5520;DHT22;2782;52.362;10.012;2024-01-15T04:44:49;17.90;50.70
5520;DHT22;2782;52.362;10.012;2024-01-15T04:45:50;17.90;50.70
5520;DHT22;2782;52.362;10.012;2024-01-15T04:46:51;17.90;50.70
5520;DHT22;2782;52.362;10.012;2024-01-15T04:47:53;17.90;50.70
5520;DHT22;2782;52.362;10.012;2024-01-15T04:48:53;17.90;50.70
5520;DHT22;2782;52.362;10.012;2024-01-15T04:49:54;17.90;50.70
5520;DHT22;2782;52.362;10.012;2024-01-15T04:50:56;17.90;50.70
5520;DHT22;2782;52.362;10.012;2024-01-15T04:51:56;17.90;50.70
5520;DHT22;2782;52.362;10.012;2024-01-15T04:52:58;17.90;50.70
5520;DHT22;2782;52.362;10.012;2024-01-15T04:53:59;17.90;50.70
5520;DHT22;2782;52.362;10.012;2024-01-15T04:55:00;17.90;50.70
5520;DHT22;2782;52.362;10.012;2024-01-15T04:56:01;17.90;50.70
5520;DHT22;2782;52.362;10.012;2024-01-15T04:57:04;17.90;50.70
5520;DHT22;2782;52.362;10.012;2024-01-15T04:58:04;17.90;50.60
5520;DHT22;2782;52.362;10.012;2024-01-15T04:59:06;17.90;50.60
5520;DHT22;2782;52.362;10.012;2024-01-15T05:00:07;17.90;50.70
5520;DHT22;2782;52.362;10.012;2024-01-15T05:01:09;17.80;50.60
5520;DHT22;2782;52.362;10.012;2024-01-15T05:02:10;17.90;50.70
5520;DHT22;2782;52.362;10.012;2024-01-15T05:03:12;17.80;50.60
5520;DHT22;2782;52.362;10.012;2024-01-15T05:04:12;17.90;50.70
5520;DHT22;2782;52.362;10.012;2024-01-15T05:05:14;17.80;50.60
5520;DHT22;2782;52.362;10.012;2024-01-15T05:06:15;17.90;50.70
5520;DHT22;2782;52.362;10.012;2024-01-15T05:07:15;17.80;50.60
5520;DHT22;2782;52.362;10.012;2024-01-15T05:08:17;17.80;50.60
5520;DHT22;2782;52.362;10.012;2024-01-15T05:09:18;17.80;50.60
5520;DHT22;2782;52.362;10.012;2024-01-15T05:10:19;17.80;50.60
5520;DHT22;2782;52.362;10.012;2024-01-15T05:11:20;17.80;50.60
5520;DHT22;2782;52.362;10.012;2024-01-15T05:12:23;17.80;50.60
5520;DHT22;2782;52.362;10.012;2024-01-15T05:13:23;17.80;50.60
5520;DHT22;2782;52.362;10.012;2024-01-15T05:14:25;17.80;50.60
5520;DHT22;2782;52.362;10.012;2024-01-15T05:15:26;17.80;50.60
5520;DHT22;2782;52.362;10.012;2024-01-15T05:16:27;17.80;50.60
5520;DHT22;2782;52.362;10.012;2024-01-15T05:17:28;17.80;50.60
5520;DHT22;2782;52.362;10.012;2024-01-15T05:18:29;17.80;50.60
5520;DHT22;2782;52.362;10.012;2024-01-15T05:19:30;17.80;50.60
5520;DHT22;2782;52.362;10.012;2024-01-15T05:20:32;17.80;50.60
5520;DHT22;2782;52.362;10.012;2024-01-15T05:21:32;17.70;50.60
5520;DHT22;2782;52.362;10.012;2024-01-15T05:22:34;17.70;50.60
5520;DHT22;2782;52.362;10.012;2024-01-15T05:23:35;17.70;50.70
5520;DHT22;2782;52.362;10.012;2024-01-15T05:24:36;17.70;50.70
5520;DHT22;2782;52.362;10.012;2024-01-15T05:25:37;17.70;50.70
5520;DHT22;2782;52.362;10.012;2024-01-15T05:26:38;17.70;50.70
5520;DHT22;2782;52.362;10.012;2024-01-15T05:27:40;17.70;50.80
5520;DHT22;2782;52.362;10.012;2024-01-15T05:28:42;17.70;50.80
5520;DHT22;2782;52.362;10.012;2024-01-15T05:29:43;17.70;50.90
5520;DHT22;2782;52.362;10.012;2024-01-15T05:30:44;17.70;50.90
5520;DHT22;2782;52.362;10.012;2024-01-15T05:31:45;17.70;51.00
5520;DHT22;2782;52.362;10.012;2024-01-15T05:32:45;17.70;51.00
5520;DHT22;2782;52.362;10.012;2024-01-15T05:33:47;17.80;51.10
5520;DHT22;2782;52.362;10.012;2024-01-15T05:34:48;17.70;51.10
5520;DHT22;2782;52.362;10.012;2024-01-15T05:35:49;17.80;51.40
5520;DHT22;2782;52.362;10.012;2024-01-15T05:36:50;17.80;51.50
5520;DHT22;2782;52.362;10.012;2024-01-15T05:37:52;17.70;51.50
5520;DHT22;2782;52.362;10.012;2024-01-15T05:38:53;17.70;51.40
5520;DHT22;2782;52.362;10.012;2024-01-15T05:39:54;17.70;51.40
5520;DHT22;2782;52.362;10.012;2024-01-15T05:40:55;17.80;51.50
5520;DHT22;2782;52.362;10.012;2024-01-15T05:41:58;17.70;51.50
5520;DHT22;2782;52.362;10.012;2024-01-15T05:43:00;17.80;51.60
5520;DHT22;2782;52.362;10.012;2024-01-15T05:44:01;17.80;51.80
5520;DHT22;2782;52.362;10.012;2024-01-15T05:45:03;17.70;51.90
5520;DHT22;2782;52.362;10.012;2024-01-15T05:46:05;17.80;52.20
5520;DHT22;2782;52.362;10.012;2024-01-15T05:47:05;17.80;51.80
5520;DHT22;2782;52.362;10.012;2024-01-15T05:48:07;17.70;51.80
5520;DHT22;2782;52.362;10.012;2024-01-15T05:49:08;17.80;52.60
5520;DHT22;2782;52.362;10.012;2024-01-15T05:50:09;17.80;52.60
5520;DHT22;2782;52.362;10.012;2024-01-15T05:51:10;17.80;52.70
5520;DHT22;2782;52.362;10.012;2024-01-15T05:52:11;17.80;52.00
5520;DHT22;2782;52.362;10.012;2024-01-15T05:53:12;17.80;51.90
5520;DHT22;2782;52.362;10.012;2024-01-15T05:54:13;17.80;51.90
5520;DHT22;2782;52.362;10.012;2024-01-15T05:55:15;17.80;52.10
5520;DHT22;2782;52.362;10.012;2024-01-15T05:56:15;17.80;52.40
5520;DHT22;2782;52.362;10.012;2024-01-15T05:57:17;17.80;52.70
5520;DHT22;2782;52.362;10.012;2024-01-15T05:58:19;17.80;52.90
5520;DHT22;2782;52.362;10.012;2024-01-15T05:59:21;17.80;53.10
5520;DHT22;2782;52.362;10.012;2024-01-15T06:00:21;17.80;53.20
5520;DHT22;2782;52.362;10.012;2024-01-15T06:01:22;17.80;53.30
5520;DHT22;2782;52.362;10.012;2024-01-15T06:02:24;17.80;53.60
5520;DHT22;2782;52.362;10.012;2024-01-15T06:03:24;17.80;53.60
5520;DHT22;2782;52.362;10.012;2024-01-15T06:04:26;17.80;53.60
5520;DHT22;2782;52.362;10.012;2024-01-15T06:05:27;17.90;53.80
5520;DHT22;2782;52.362;10.012;2024-01-15T06:06:28;17.90;53.90
5520;DHT22;2782;52.362;10.012;2024-01-15T06:07:29;17.80;53.60
5520;DHT22;2782;52.362;10.012;2024-01-15T06:08:31;17.90;53.70
5520;DHT22;2782;52.362;10.012;2024-01-15T06:09:31;17.80;54.20
5520;DHT22;2782;52.362;10.012;2024-01-15T06:10:33;17.80;54.50
5520;DHT22;2782;52.362;10.012;2024-01-15T06:11:34;17.80;54.50
5520;DHT22;2782;52.362;10.012;2024-01-15T06:12:35;17.90;54.10
5520;DHT22;2782;52.362;10.012;2024-01-15T06:13:37;17.90;53.90
5520;DHT22;2782;52.362;10.012;2024-01-15T06:14:39;17.90;53.80
5520;DHT22;2782;52.362;10.012;2024-01-15T06:15:41;17.90;53.70
5520;DHT22;2782;52.362;10.012;2024-01-15T06:16:43;17.90;53.70
5520;DHT22;2782;52.362;10.012;2024-01-15T06:17:44;17.90;54.40
5520;DHT22;2782;52.362;10.012;2024-01-15T06:18:45;17.80;53.50
5520;DHT22;2782;52.362;10.012;2024-01-15T06:19:46;17.90;52.90
5520;DHT22;2782;52.362;10.012;2024-01-15T06:20:47;17.90;53.50
5520;DHT22;2782;52.362;10.012;2024-01-15T06:21:48;17.90;53.90
5520;DHT22;2782;52.362;10.012;2024-01-15T06:22:50;17.90;54.30
5520;DHT22;2782;52.362;10.012;2024-01-15T06:23:50;17.90;54.20
5520;DHT22;2782;52.362;10.012;2024-01-15T06:24:52;17.90;54.50
5520;DHT22;2782;52.362;10.012;2024-01-15T06:25:52;17.90;54.70
5520;DHT22;2782;52.362;10.012;2024-01-15T06:26:54;17.90;54.70
5520;DHT22;2782;52.362;10.012;2024-01-15T06:27:55;17.90;54.60
5520;DHT22;2782;52.362;10.012;2024-01-15T06:28:57;17.90;54.50
5520;DHT22;2782;52.362;10.012;2024-01-15T06:29:58;17.90;54.50
5520;DHT22;2782;52.362;10.012;2024-01-15T06:31:00;17.90;54.50
5520;DHT22;2782;52.362;10.012;2024-01-15T06:32:00;17.90;54.50
5520;DHT22;2782;52.362;10.012;2024-01-15T06:33:02;17.90;54.40
5520;DHT22;2782;52.362;10.012;2024-01-15T06:34:03;17.90;54.30
5520;DHT22;2782;52.362;10.012;2024-01-15T06:35:05;18.00;54.40
5520;DHT22;2782;52.362;10.012;2024-01-15T06:36:06;18.00;54.60
5520;DHT22;2782;52.362;10.012;2024-01-15T06:37:08;18.00;54.50